createdAt,value
2018-09-10T00:00:12.276Z,18.70
2018-09-10T00:00:45.806Z,18.70
2018-09-10T00:01:19.296Z,18.70
2018-09-10T00:01:52.793Z,18.70
2018-09-10T00:02:26.292Z,18.70
2018-09-10T00:02:59.837Z,18.70
2018-09-10T00:03:33.467Z,18.70
2018-09-10T00:04:07.022Z,18.70
2018-09-10T00:04:40.549Z,18.60
2018-09-10T00:05:14.060Z,18.60
2018-09-10T00:05:47.576Z,18.60
2018-09-10T00:06:21.257Z,18.70
2018-09-10T00:06:54.812Z,18.70
2018-09-10T00:07:28.327Z,18.60
2018-09-10T00:08:01.923Z,18.60
2018-09-10T00:08:35.473Z,18.70
2018-09-10T00:09:09.088Z,18.60
2018-09-10T00:09:42.613Z,18.80
2018-09-10T00:10:16.189Z,18.70
2018-09-10T00:10:49.713Z,18.70
2018-09-10T00:11:23.212Z,18.60
2018-09-10T00:11:56.737Z,18.60
2018-09-10T00:12:30.224Z,18.60
2018-09-10T00:13:03.741Z,18.70
2018-09-10T00:13:37.247Z,18.70
2018-09-10T00:14:10.780Z,18.70
2018-09-10T00:14:44.321Z,18.60
2018-09-10T00:15:17.869Z,18.70
2018-09-10T00:15:51.395Z,18.70
2018-09-10T00:16:24.883Z,18.70
2018-09-10T00:16:58.403Z,18.60
2018-09-10T00:17:31.926Z,18.60
2018-09-10T00:18:05.504Z,18.80
2018-09-10T00:18:39.035Z,18.70
2018-09-10T00:19:12.573Z,18.60
2018-09-10T00:19:46.139Z,18.70
2018-09-10T00:20:19.681Z,18.70
2018-09-10T00:20:53.185Z,18.70
2018-09-10T00:21:26.995Z,18.60
2018-09-10T00:22:00.550Z,18.70
2018-09-10T00:22:34.089Z,18.70
2018-09-10T00:23:07.615Z,18.70
2018-09-10T00:23:41.096Z,18.70
2018-09-10T00:24:14.611Z,18.80
2018-09-10T00:24:48.138Z,18.70
2018-09-10T00:25:21.627Z,18.70
2018-09-10T00:25:55.144Z,18.80
2018-09-10T00:26:28.660Z,18.80
2018-09-10T00:27:02.203Z,18.70
2018-09-10T00:27:36.249Z,18.80
2018-09-10T00:28:09.755Z,18.80
2018-09-10T00:28:43.285Z,18.70
2018-09-10T00:29:16.767Z,18.70
2018-09-10T00:29:50.599Z,18.70
2018-09-10T00:30:24.189Z,18.80
2018-09-10T00:30:57.728Z,18.70
2018-09-10T00:31:31.247Z,18.80
2018-09-10T00:32:04.808Z,18.80
2018-09-10T00:32:38.315Z,18.80
2018-09-10T00:33:11.841Z,18.80
2018-09-10T00:33:45.371Z,18.70
2018-09-10T00:34:18.937Z,18.70
2018-09-10T00:34:52.441Z,18.70
2018-09-10T00:35:25.995Z,18.70
2018-09-10T00:35:59.509Z,18.70
2018-09-10T00:36:33.023Z,18.80
2018-09-10T00:37:06.552Z,18.80
2018-09-10T00:37:40.063Z,18.70
2018-09-10T00:38:13.609Z,18.70
2018-09-10T00:38:47.135Z,18.80
2018-09-10T00:39:20.658Z,18.70
2018-09-10T00:39:54.183Z,18.70
2018-09-10T00:40:27.705Z,18.80
2018-09-10T00:41:01.313Z,18.80
2018-09-10T00:41:34.871Z,18.80
2018-09-10T00:42:08.386Z,18.80
2018-09-10T00:42:41.927Z,18.70
2018-09-10T00:43:15.445Z,18.70
2018-09-10T00:43:48.983Z,18.80
2018-09-10T00:44:22.503Z,18.70
2018-09-10T00:44:56.047Z,18.80
2018-09-10T00:45:29.585Z,18.70
2018-09-10T00:46:03.097Z,18.80
2018-09-10T00:46:36.885Z,18.80
2018-09-10T00:47:10.423Z,18.70
2018-09-10T00:47:44.060Z,18.80
2018-09-10T00:48:17.567Z,18.80
2018-09-10T00:48:51.097Z,18.80
2018-09-10T00:49:24.588Z,18.80
2018-09-10T00:49:58.355Z,18.80
2018-09-10T00:50:31.871Z,18.80
2018-09-10T00:51:05.408Z,18.80
2018-09-10T00:51:38.932Z,18.80
2018-09-10T00:52:12.473Z,18.80
2018-09-10T00:52:46.020Z,18.80
2018-09-10T00:53:19.534Z,18.80
2018-09-10T00:53:53.073Z,18.80
2018-09-10T00:54:26.597Z,18.80
2018-09-10T00:55:00.075Z,18.70
2018-09-10T00:55:33.624Z,18.80
2018-09-10T00:56:07.142Z,18.80
2018-09-10T00:56:40.647Z,18.80
2018-09-10T00:57:14.449Z,18.80
2018-09-10T00:57:47.981Z,18.80
2018-09-10T00:58:21.528Z,18.80
2018-09-10T00:58:55.279Z,18.80
2018-09-10T00:59:28.817Z,18.70
2018-09-10T01:00:02.376Z,18.90
2018-09-10T01:00:35.967Z,18.90
2018-09-10T01:01:09.477Z,18.80
2018-09-10T01:01:42.971Z,18.80
2018-09-10T01:02:16.522Z,18.80
2018-09-10T01:02:50.020Z,18.70
2018-09-10T01:03:23.533Z,18.90
2018-09-10T01:03:57.034Z,18.80
2018-09-10T01:04:30.569Z,18.80
2018-09-10T01:05:04.225Z,18.80
2018-09-10T01:05:37.783Z,18.80
2018-09-10T01:06:11.322Z,18.90
2018-09-10T01:06:44.839Z,18.80
2018-09-10T01:07:18.393Z,18.80
2018-09-10T01:07:51.921Z,18.80
2018-09-10T01:08:25.458Z,18.80
2018-09-10T01:08:58.996Z,18.70
2018-09-10T01:09:32.536Z,18.80
2018-09-10T01:10:06.058Z,18.90
2018-09-10T01:10:39.566Z,18.80
2018-09-10T01:11:13.112Z,18.80
2018-09-10T01:11:46.628Z,18.80
2018-09-10T01:12:20.163Z,18.90
2018-09-10T01:12:53.672Z,18.80
2018-09-10T01:13:27.256Z,18.90
2018-09-10T01:14:00.823Z,18.80
2018-09-10T01:14:34.366Z,18.90
2018-09-10T01:15:07.935Z,18.80
2018-09-10T01:15:41.463Z,18.90
2018-09-10T01:16:14.980Z,18.80
2018-09-10T01:16:48.497Z,18.80
2018-09-10T01:17:21.998Z,18.80
2018-09-10T01:17:55.518Z,18.80
2018-09-10T01:18:29.065Z,18.70
2018-09-10T01:19:02.607Z,18.80
2018-09-10T01:19:36.161Z,18.80
2018-09-10T01:20:09.741Z,18.80
2018-09-10T01:20:43.233Z,18.90
2018-09-10T01:21:16.728Z,18.90
2018-09-10T01:21:50.353Z,18.80
2018-09-10T01:22:24.134Z,18.80
2018-09-10T01:22:57.679Z,18.80
2018-09-10T01:23:31.771Z,18.80
2018-09-10T01:24:05.329Z,18.80
2018-09-10T01:24:38.841Z,18.80
2018-09-10T01:25:12.393Z,18.90
2018-09-10T01:25:45.913Z,18.80
2018-09-10T01:26:19.472Z,18.80
2018-09-10T01:26:52.975Z,18.80
2018-09-10T01:27:26.479Z,18.80
2018-09-10T01:28:00.062Z,18.80
2018-09-10T01:28:33.807Z,18.80
2018-09-10T01:29:07.364Z,18.80
2018-09-10T01:29:40.871Z,18.80
2018-09-10T01:30:14.440Z,18.90
2018-09-10T01:30:48.047Z,18.90
2018-09-10T01:31:21.601Z,18.80
2018-09-10T01:31:55.173Z,18.90
2018-09-10T01:32:28.694Z,18.90
2018-09-10T01:33:02.180Z,18.90
2018-09-10T01:33:41.455Z,18.80
2018-09-10T01:34:20.739Z,18.80
2018-09-10T01:35:00.064Z,18.80
2018-09-10T01:35:33.577Z,18.90
2018-09-10T01:36:07.122Z,18.90
2018-09-10T01:36:40.641Z,18.80
2018-09-10T01:37:14.144Z,18.80
2018-09-10T01:37:47.670Z,18.80
2018-09-10T01:38:21.184Z,18.80
2018-09-10T01:38:54.679Z,18.80
2018-09-10T01:39:28.218Z,18.80
2018-09-10T01:40:02.139Z,18.80
2018-09-10T01:40:35.617Z,18.80
2018-09-10T01:41:09.156Z,18.80
2018-09-10T01:41:42.694Z,18.90
2018-09-10T01:42:16.255Z,18.80
2018-09-10T01:42:49.787Z,18.90
2018-09-10T01:43:23.320Z,18.90
2018-09-10T01:43:56.830Z,18.80
2018-09-10T01:44:30.393Z,18.90
2018-09-10T01:45:04.010Z,18.80
2018-09-10T01:45:37.516Z,18.90
2018-09-10T01:46:11.032Z,18.90
2018-09-10T01:46:44.540Z,18.70
2018-09-10T01:47:18.108Z,18.70
2018-09-10T01:47:51.642Z,18.80
2018-09-10T01:48:25.150Z,18.90
2018-09-10T01:48:58.662Z,18.90
2018-09-10T01:49:32.193Z,18.80
2018-09-10T01:50:05.746Z,18.90
2018-09-10T01:50:39.260Z,18.80
2018-09-10T01:51:12.832Z,18.80
2018-09-10T01:51:46.376Z,18.80
2018-09-10T01:52:19.902Z,18.80
2018-09-10T01:52:53.429Z,18.80
2018-09-10T01:53:26.963Z,18.80
2018-09-10T01:54:00.482Z,18.80
2018-09-10T01:54:33.999Z,18.80
2018-09-10T01:55:07.542Z,18.90
2018-09-10T01:55:41.176Z,18.90
2018-09-10T01:56:14.729Z,18.80
2018-09-10T01:56:48.238Z,18.90
2018-09-10T01:57:21.759Z,18.90
2018-09-10T01:57:55.292Z,18.80
2018-09-10T01:58:28.814Z,18.70
2018-09-10T01:59:02.336Z,18.80
2018-09-10T01:59:35.883Z,18.80
2018-09-10T02:00:09.458Z,18.80
2018-09-10T02:00:42.981Z,18.80
2018-09-10T02:01:16.510Z,18.90
2018-09-10T02:01:50.098Z,18.80
2018-09-10T02:02:23.626Z,18.80
2018-09-10T02:02:57.146Z,18.90
2018-09-10T02:03:30.718Z,18.80
2018-09-10T02:04:04.218Z,18.80
2018-09-10T02:04:37.767Z,18.80
2018-09-10T02:05:11.294Z,18.90
2018-09-10T02:05:44.896Z,18.90
2018-09-10T02:06:18.952Z,18.80
2018-09-10T02:06:53.186Z,18.80
2018-09-10T02:07:26.700Z,18.90
2018-09-10T02:08:00.286Z,18.80
2018-09-10T02:08:33.814Z,18.90
2018-09-10T02:09:08.794Z,18.80
2018-09-10T02:09:42.356Z,18.80
2018-09-10T02:10:15.912Z,18.80
2018-09-10T02:10:49.443Z,18.80
2018-09-10T02:11:23.014Z,18.90
2018-09-10T02:11:56.529Z,18.80
2018-09-10T02:12:30.048Z,18.80
2018-09-10T02:13:03.578Z,18.80
2018-09-10T02:13:37.108Z,18.80
2018-09-10T02:14:10.715Z,18.80
2018-09-10T02:14:44.244Z,18.80
2018-09-10T02:15:17.832Z,18.80
2018-09-10T02:15:51.950Z,18.80
2018-09-10T02:16:25.492Z,18.80
2018-09-10T02:16:59.024Z,18.80
2018-09-10T02:17:32.576Z,18.70
2018-09-10T02:18:06.254Z,18.70
2018-09-10T02:18:39.840Z,18.70
2018-09-10T02:19:13.414Z,18.70
2018-09-10T02:19:47.033Z,18.70
2018-09-10T02:20:20.579Z,18.70
2018-09-10T02:20:54.088Z,18.70
2018-09-10T02:21:27.611Z,18.70
2018-09-10T02:22:01.125Z,18.70
2018-09-10T02:22:34.653Z,18.70
2018-09-10T02:23:08.135Z,18.70
2018-09-10T02:23:41.725Z,18.70
2018-09-10T02:24:15.248Z,18.60
2018-09-10T02:24:48.844Z,18.70
2018-09-10T02:25:22.353Z,18.70
2018-09-10T02:25:55.910Z,18.70
2018-09-10T02:26:29.430Z,18.70
2018-09-10T02:27:02.977Z,18.70
2018-09-10T02:27:36.497Z,18.70
2018-09-10T02:28:10.046Z,18.60
2018-09-10T02:28:43.609Z,18.60
2018-09-10T02:29:17.231Z,18.70
2018-09-10T02:29:50.758Z,18.60
2018-09-10T02:30:24.285Z,18.50
2018-09-10T02:30:57.792Z,18.60
2018-09-10T02:31:31.317Z,18.70
2018-09-10T02:32:04.835Z,18.60
2018-09-10T02:32:38.356Z,18.60
2018-09-10T02:33:11.910Z,18.60
2018-09-10T02:33:45.470Z,18.70
2018-09-10T02:34:19.015Z,18.60
2018-09-10T02:34:52.553Z,18.50
2018-09-10T02:35:26.057Z,18.60
2018-09-10T02:35:59.637Z,18.60
2018-09-10T02:36:33.188Z,18.60
2018-09-10T02:37:06.725Z,18.50
2018-09-10T02:37:40.265Z,18.60
2018-09-10T02:38:14.049Z,18.60
2018-09-10T02:38:47.566Z,18.50
2018-09-10T02:39:21.113Z,18.50
2018-09-10T02:39:54.630Z,18.50
2018-09-10T02:40:28.155Z,18.50
2018-09-10T02:41:01.707Z,18.50
2018-09-10T02:41:41.382Z,18.50
2018-09-10T02:42:14.918Z,18.50
2018-09-10T02:42:48.439Z,18.50
2018-09-10T02:43:22.007Z,18.50
2018-09-10T02:43:55.541Z,18.50
2018-09-10T02:44:29.087Z,18.40
2018-09-10T02:45:02.661Z,18.50
2018-09-10T02:45:36.197Z,18.50
2018-09-10T02:46:09.709Z,18.60
2018-09-10T02:46:43.346Z,18.40
2018-09-10T02:47:17.023Z,18.50
2018-09-10T02:47:50.634Z,18.50
2018-09-10T02:48:24.168Z,18.50
2018-09-10T02:48:57.657Z,18.50
2018-09-10T02:49:31.164Z,18.50
2018-09-10T02:50:05.261Z,18.50
2018-09-10T02:50:38.805Z,18.50
2018-09-10T02:51:12.315Z,18.50
2018-09-10T02:51:45.851Z,18.40
2018-09-10T02:52:19.373Z,18.40
2018-09-10T02:52:52.935Z,18.50
2018-09-10T02:53:26.451Z,18.40
2018-09-10T02:53:59.933Z,18.50
2018-09-10T02:54:33.463Z,18.40
2018-09-10T02:55:07.048Z,18.40
2018-09-10T02:55:40.604Z,18.30
2018-09-10T02:56:14.140Z,18.30
2018-09-10T02:56:47.690Z,18.40
2018-09-10T02:57:21.225Z,18.30
2018-09-10T02:57:54.727Z,18.40
2018-09-10T02:58:28.249Z,18.40
2018-09-10T02:59:01.815Z,18.40
2018-09-10T02:59:35.315Z,18.40
2018-09-10T03:00:09.377Z,18.40
2018-09-10T03:00:42.971Z,18.40
2018-09-10T03:01:16.475Z,18.40
2018-09-10T03:01:50.021Z,18.40
2018-09-10T03:02:23.549Z,18.30
2018-09-10T03:02:57.057Z,18.30
2018-09-10T03:03:30.545Z,18.30
2018-09-10T03:04:04.093Z,18.30
2018-09-10T03:04:37.611Z,18.30
2018-09-10T03:05:11.105Z,18.30
2018-09-10T03:05:44.599Z,18.30
2018-09-10T03:06:18.109Z,18.30
2018-09-10T03:06:52.464Z,18.30
2018-09-10T03:07:25.955Z,18.30
2018-09-10T03:07:59.441Z,18.30
2018-09-10T03:08:32.986Z,18.30
2018-09-10T03:09:08.621Z,18.30
2018-09-10T03:09:42.146Z,18.30
2018-09-10T03:10:15.733Z,18.40
2018-09-10T03:10:49.245Z,18.30
2018-09-10T03:11:22.893Z,18.30
2018-09-10T03:11:56.443Z,18.30
2018-09-10T03:12:29.977Z,18.30
2018-09-10T03:13:03.843Z,18.30
2018-09-10T03:13:37.329Z,18.30
2018-09-10T03:14:10.821Z,18.20
2018-09-10T03:14:44.367Z,18.30
2018-09-10T03:15:18.081Z,18.30
2018-09-10T03:15:51.626Z,18.30
2018-09-10T03:16:25.129Z,18.20
2018-09-10T03:16:58.631Z,18.20
2018-09-10T03:17:32.165Z,18.30
2018-09-10T03:18:05.619Z,18.20
2018-09-10T03:18:38.995Z,18.20
2018-09-10T03:19:12.527Z,18.20
2018-09-10T03:19:46.021Z,18.30
2018-09-10T03:20:19.635Z,18.30
2018-09-10T03:20:53.166Z,18.30
2018-09-10T03:21:26.705Z,18.20
2018-09-10T03:22:00.220Z,18.20
2018-09-10T03:22:33.740Z,18.10
2018-09-10T03:23:07.278Z,18.20
2018-09-10T03:23:40.777Z,18.20
2018-09-10T03:24:14.532Z,18.20
2018-09-10T03:24:47.867Z,18.20
2018-09-10T03:25:21.383Z,18.20
2018-09-10T03:25:54.903Z,18.20
2018-09-10T03:26:28.438Z,18.20
2018-09-10T03:27:01.955Z,18.20
2018-09-10T03:27:35.571Z,18.20
2018-09-10T03:28:09.079Z,18.30
2018-09-10T03:28:42.601Z,18.20
2018-09-10T03:29:16.102Z,18.10
2018-09-10T03:29:49.637Z,18.20
2018-09-10T03:30:23.191Z,18.20
2018-09-10T03:30:56.813Z,18.20
2018-09-10T03:31:30.273Z,18.20
2018-09-10T03:32:03.817Z,18.10
2018-09-10T03:32:37.649Z,18.20
2018-09-10T03:33:11.190Z,18.10
2018-09-10T03:33:44.780Z,18.20
2018-09-10T03:34:18.219Z,18.20
2018-09-10T03:34:51.763Z,18.10
2018-09-10T03:35:25.277Z,18.10
2018-09-10T03:35:58.806Z,18.10
2018-09-10T03:36:32.297Z,18.10
2018-09-10T03:37:05.827Z,18.20
2018-09-10T03:37:39.341Z,18.20
2018-09-10T03:38:12.871Z,18.20
2018-09-10T03:38:46.596Z,18.10
2018-09-10T03:39:20.115Z,18.20
2018-09-10T03:39:53.629Z,18.20
2018-09-10T03:40:27.173Z,18.20
2018-09-10T03:41:00.665Z,18.10
2018-09-10T03:41:34.175Z,18.10
2018-09-10T03:42:07.763Z,18.00
2018-09-10T03:42:41.295Z,18.10
2018-09-10T03:43:14.857Z,18.10
2018-09-10T03:43:48.401Z,18.10
2018-09-10T03:44:21.893Z,18.10
2018-09-10T03:44:55.380Z,18.10
2018-09-10T03:45:28.915Z,18.00
2018-09-10T03:46:02.424Z,18.10
2018-09-10T03:46:36.091Z,18.10
2018-09-10T03:47:09.628Z,18.10
2018-09-10T03:47:43.156Z,18.00
2018-09-10T03:48:16.659Z,18.00
2018-09-10T03:48:50.201Z,18.10
2018-09-10T03:49:23.683Z,18.10
2018-09-10T03:49:57.201Z,18.10
2018-09-10T03:50:30.711Z,18.00
2018-09-10T03:51:04.227Z,18.00
2018-09-10T03:51:37.750Z,18.00
2018-09-10T03:52:11.284Z,18.10
2018-09-10T03:52:44.795Z,17.90
2018-09-10T03:53:18.319Z,17.90
2018-09-10T03:53:51.885Z,18.00
2018-09-10T03:54:25.445Z,17.90
2018-09-10T03:54:58.963Z,18.00
2018-09-10T03:55:32.489Z,18.00
2018-09-10T03:56:06.005Z,17.90
2018-09-10T03:56:39.512Z,18.00
2018-09-10T03:57:13.055Z,17.90
2018-09-10T03:57:46.599Z,17.90
2018-09-10T03:58:20.139Z,18.00
2018-09-10T03:58:53.683Z,17.90
2018-09-10T03:59:27.170Z,17.90
2018-09-10T04:00:00.699Z,17.90
2018-09-10T04:00:34.233Z,17.80
2018-09-10T04:01:08.141Z,17.90
2018-09-10T04:01:41.703Z,17.90
2018-09-10T04:02:15.241Z,17.90
2018-09-10T04:02:48.795Z,18.00
2018-09-10T04:03:22.375Z,17.90
2018-09-10T04:03:55.894Z,17.90
2018-09-10T04:04:29.445Z,17.80
2018-09-10T04:05:03.002Z,17.80
2018-09-10T04:05:36.540Z,17.80
2018-09-10T04:06:10.055Z,17.90
2018-09-10T04:06:43.669Z,17.80
2018-09-10T04:07:17.177Z,17.80
2018-09-10T04:07:50.727Z,17.80
2018-09-10T04:08:24.234Z,17.80
2018-09-10T04:08:57.741Z,17.80
2018-09-10T04:09:31.248Z,17.70
2018-09-10T04:10:04.884Z,17.80
2018-09-10T04:10:38.473Z,17.80
2018-09-10T04:11:11.975Z,17.80
2018-09-10T04:11:45.489Z,17.80
2018-09-10T04:12:18.987Z,17.70
2018-09-10T04:12:52.536Z,17.80
2018-09-10T04:13:26.067Z,17.80
2018-09-10T04:13:59.589Z,17.80
2018-09-10T04:14:33.086Z,17.70
2018-09-10T04:15:06.599Z,17.80
2018-09-10T04:15:40.154Z,17.80
2018-09-10T04:16:13.667Z,17.80
2018-09-10T04:16:47.207Z,17.80
2018-09-10T04:17:20.767Z,17.70
2018-09-10T04:17:54.267Z,17.70
2018-09-10T04:18:27.807Z,17.70
2018-09-10T04:19:01.357Z,17.70
2018-09-10T04:19:34.916Z,17.70
2018-09-10T04:20:09.639Z,17.80
2018-09-10T04:20:43.183Z,17.70
2018-09-10T04:21:16.753Z,17.80
2018-09-10T04:21:50.341Z,17.70
2018-09-10T04:22:23.841Z,17.80
2018-09-10T04:22:57.331Z,17.70
2018-09-10T04:23:30.827Z,17.60
2018-09-10T04:24:04.381Z,17.80
2018-09-10T04:24:37.909Z,17.70
2018-09-10T04:25:11.452Z,17.70
2018-09-10T04:25:44.963Z,17.80
2018-09-10T04:26:18.470Z,17.80
2018-09-10T04:26:52.008Z,17.70
2018-09-10T04:27:25.526Z,17.70
2018-09-10T04:27:59.034Z,17.70
2018-09-10T04:28:32.548Z,17.60
2018-09-10T04:29:06.084Z,17.70
2018-09-10T04:29:39.605Z,17.70
2018-09-10T04:30:15.019Z,17.70
2018-09-10T04:30:48.559Z,17.70
2018-09-10T04:31:22.155Z,17.60
2018-09-10T04:31:55.683Z,17.60
2018-09-10T04:32:29.242Z,17.60
2018-09-10T04:33:02.790Z,17.50
2018-09-10T04:33:36.296Z,17.60
2018-09-10T04:34:09.777Z,17.60
2018-09-10T04:34:43.258Z,17.60
2018-09-10T04:35:16.771Z,17.60
2018-09-10T04:35:50.302Z,17.60
2018-09-10T04:36:23.936Z,17.50
2018-09-10T04:36:57.440Z,17.50
2018-09-10T04:37:30.945Z,17.50
2018-09-10T04:38:04.465Z,17.50
2018-09-10T04:38:38.098Z,17.60
2018-09-10T04:39:11.944Z,17.60
2018-09-10T04:39:45.447Z,17.50
2018-09-10T04:40:19.018Z,17.50
2018-09-10T04:40:52.544Z,17.50
2018-09-10T04:41:27.037Z,17.50
2018-09-10T04:42:00.649Z,17.50
2018-09-10T04:42:34.186Z,17.50
2018-09-10T04:43:07.696Z,17.40
2018-09-10T04:43:41.209Z,17.40
2018-09-10T04:44:14.716Z,17.40
2018-09-10T04:44:48.207Z,17.50
2018-09-10T04:45:21.750Z,17.40
2018-09-10T04:45:55.288Z,17.50
2018-09-10T04:46:28.804Z,17.50
2018-09-10T04:47:02.340Z,17.40
2018-09-10T04:47:35.882Z,17.40
2018-09-10T04:48:09.464Z,17.30
2018-09-10T04:48:42.972Z,17.30
2018-09-10T04:49:16.484Z,17.30
2018-09-10T04:49:50.091Z,17.40
2018-09-10T04:50:23.554Z,17.40
2018-09-10T04:50:57.092Z,17.30
2018-09-10T04:51:30.814Z,17.30
2018-09-10T04:52:04.341Z,17.30
2018-09-10T04:52:37.838Z,17.30
2018-09-10T04:53:11.354Z,17.20
2018-09-10T04:53:44.866Z,17.20
2018-09-10T04:54:18.396Z,17.30
2018-09-10T04:54:51.928Z,17.30
2018-09-10T04:55:25.482Z,17.30
2018-09-10T04:55:58.998Z,17.20
2018-09-10T04:56:32.476Z,17.20
2018-09-10T04:57:06.031Z,17.20
2018-09-10T04:57:39.628Z,17.20
2018-09-10T04:58:13.227Z,17.20
2018-09-10T04:58:46.715Z,17.20
2018-09-10T04:59:20.323Z,17.20
2018-09-10T04:59:53.818Z,17.20
2018-09-10T05:00:27.311Z,17.20
2018-09-10T05:01:01.243Z,17.20
2018-09-10T05:01:34.780Z,17.20
2018-09-10T05:02:08.296Z,17.10
2018-09-10T05:05:15.797Z,17.00
2018-09-10T05:05:49.312Z,17.10
2018-09-10T05:06:22.818Z,17.10
2018-09-10T05:06:56.394Z,17.10
2018-09-10T05:07:29.880Z,17.10
2018-09-10T05:08:03.433Z,17.00
2018-09-10T05:08:36.958Z,17.00
2018-09-10T05:09:10.489Z,17.00
2018-09-10T05:09:44.025Z,17.00
2018-09-10T05:10:17.517Z,17.10
2018-09-10T05:10:51.036Z,17.00
2018-09-10T05:11:24.581Z,17.00
2018-09-10T05:11:58.098Z,17.00
2018-09-10T05:12:31.596Z,17.00
2018-09-10T05:13:05.137Z,17.10
2018-09-10T05:13:38.716Z,17.00
2018-09-10T05:14:12.250Z,17.00
2018-09-10T05:14:45.790Z,16.90
2018-09-10T05:15:19.825Z,16.90
2018-09-10T05:15:53.360Z,17.00
2018-09-10T05:16:26.888Z,17.00
2018-09-10T05:17:01.706Z,17.00
2018-09-10T05:17:35.212Z,17.00
2018-09-10T05:18:08.702Z,17.00
2018-09-10T05:18:42.574Z,17.00
2018-09-10T05:19:16.046Z,16.90
2018-09-10T05:19:49.596Z,16.90
2018-09-10T05:20:23.104Z,16.90
2018-09-10T05:20:56.572Z,16.90
2018-09-10T05:21:30.086Z,17.00
2018-09-10T05:22:03.877Z,16.90
2018-09-10T05:22:37.352Z,17.00
2018-09-10T05:23:10.906Z,16.90
2018-09-10T05:23:44.452Z,17.00
2018-09-10T05:24:17.973Z,16.90
2018-09-10T05:24:51.494Z,17.00
2018-09-10T05:25:25.206Z,17.00
2018-09-10T05:25:58.710Z,16.90
2018-09-10T05:26:32.236Z,17.00
2018-09-10T05:27:05.755Z,17.00
2018-09-10T05:27:39.318Z,17.00
2018-09-10T05:28:12.889Z,17.00
2018-09-10T05:28:46.388Z,16.90
2018-09-10T05:29:19.944Z,16.90
2018-09-10T05:29:53.471Z,17.00
2018-09-10T05:30:26.994Z,17.00
2018-09-10T05:31:00.528Z,17.00
2018-09-10T05:31:34.055Z,17.00
2018-09-10T05:32:07.670Z,16.90
2018-09-10T05:32:41.191Z,17.00
2018-09-10T05:33:14.778Z,17.00
2018-09-10T05:33:48.288Z,17.00
2018-09-10T05:34:21.821Z,17.00
2018-09-10T05:34:55.356Z,17.00
2018-09-10T05:35:28.908Z,17.00
2018-09-10T05:36:02.446Z,17.00
2018-09-10T05:36:36.075Z,17.00
2018-09-10T05:37:09.608Z,17.10
2018-09-10T05:37:43.182Z,17.10
2018-09-10T05:38:16.688Z,17.00
2018-09-10T05:38:50.232Z,17.10
2018-09-10T05:39:23.745Z,17.00
2018-09-10T05:39:57.308Z,17.00
2018-09-10T05:40:30.827Z,17.10
2018-09-10T05:41:04.405Z,17.00
2018-09-10T05:41:38.043Z,17.10
2018-09-10T05:42:11.513Z,17.10
2018-09-10T05:42:45.017Z,17.10
2018-09-10T05:43:18.547Z,17.10
2018-09-10T05:43:52.091Z,17.10
2018-09-10T05:44:25.649Z,17.10
2018-09-10T05:44:59.150Z,17.10
2018-09-10T05:45:32.752Z,17.10
2018-09-10T05:46:06.246Z,17.10
2018-09-10T05:46:39.793Z,17.10
2018-09-10T05:47:13.294Z,17.10
2018-09-10T05:47:46.809Z,17.10
2018-09-10T05:48:20.336Z,17.20
2018-09-10T05:48:53.859Z,17.20
2018-09-10T05:49:27.377Z,17.20
2018-09-10T05:50:00.901Z,17.20
2018-09-10T05:50:34.446Z,17.10
2018-09-10T05:51:08.012Z,17.10
2018-09-10T05:51:41.773Z,17.10
2018-09-10T05:52:15.299Z,17.20
2018-09-10T05:52:48.829Z,17.20
2018-09-10T05:53:22.389Z,17.10
2018-09-10T05:53:55.875Z,17.10
2018-09-10T05:54:29.375Z,17.20
2018-09-10T05:55:02.957Z,17.30
2018-09-10T05:55:36.563Z,17.20
2018-09-10T05:56:10.023Z,17.20
2018-09-10T05:56:43.559Z,17.20
2018-09-10T05:57:17.087Z,17.30
2018-09-10T05:57:50.647Z,17.20
2018-09-10T05:58:24.184Z,17.20
2018-09-10T05:58:57.721Z,17.40
2018-09-10T05:59:31.219Z,17.20
2018-09-10T06:00:06.612Z,17.20
2018-09-10T06:00:40.150Z,17.20
2018-09-10T06:01:13.669Z,17.30
2018-09-10T06:01:47.227Z,17.20
2018-09-10T06:02:20.777Z,17.30
2018-09-10T06:02:54.551Z,17.30
2018-09-10T06:03:28.083Z,17.20
2018-09-10T06:04:01.609Z,17.20
2018-09-10T06:04:35.111Z,17.30
2018-09-10T06:05:08.631Z,17.30
2018-09-10T06:05:42.180Z,17.30
2018-09-10T06:06:15.687Z,17.30
2018-09-10T06:06:49.171Z,17.30
2018-09-10T06:07:22.666Z,17.20
2018-09-10T06:07:56.155Z,17.30
2018-09-10T06:08:29.649Z,17.20
2018-09-10T06:09:04.288Z,17.20
2018-09-10T06:09:37.807Z,17.30
2018-09-10T06:10:11.331Z,17.30
2018-09-10T06:10:44.852Z,17.30
2018-09-10T06:11:18.400Z,17.30
2018-09-10T06:11:51.951Z,17.40
2018-09-10T06:12:25.521Z,17.30
2018-09-10T06:12:59.040Z,17.40
2018-09-10T06:13:32.570Z,17.40
2018-09-10T06:14:06.096Z,17.30
2018-09-10T06:15:10.887Z,17.40
2018-09-10T06:15:44.420Z,17.40
2018-09-10T06:16:17.944Z,17.40
2018-09-10T06:16:51.535Z,17.40
2018-09-10T06:17:24.999Z,17.40
2018-09-10T06:17:58.542Z,17.40
2018-09-10T06:18:32.181Z,17.40
2018-09-10T06:19:05.756Z,17.40
2018-09-10T06:19:39.268Z,17.50
2018-09-10T06:20:12.753Z,17.50
2018-09-10T06:20:46.283Z,17.50
2018-09-10T06:21:19.801Z,17.40
2018-09-10T06:21:53.322Z,17.50
2018-09-10T06:22:26.841Z,17.40
2018-09-10T06:23:00.341Z,17.50
2018-09-10T06:23:33.965Z,17.50
2018-09-10T06:24:07.495Z,17.50
2018-09-10T06:24:41.018Z,17.50
2018-09-10T06:25:14.597Z,17.50
2018-09-10T06:25:48.112Z,17.50
2018-09-10T06:26:21.662Z,17.50
2018-09-10T06:26:55.200Z,17.60
2018-09-10T06:27:28.746Z,17.60
2018-09-10T06:28:02.273Z,17.60
2018-09-10T06:28:35.827Z,17.60
2018-09-10T06:29:09.335Z,17.60
2018-09-10T06:29:42.891Z,17.70
2018-09-10T06:30:16.463Z,17.60
2018-09-10T06:30:49.945Z,17.70
2018-09-10T06:31:23.504Z,17.60
2018-09-10T06:31:57.032Z,17.60
2018-09-10T06:32:30.606Z,17.70
2018-09-10T06:33:04.124Z,17.70
2018-09-10T06:33:37.640Z,17.70
2018-09-10T06:34:11.253Z,17.70
2018-09-10T06:34:44.703Z,17.70
2018-09-10T06:35:18.224Z,17.70
2018-09-10T06:35:51.737Z,17.70
2018-09-10T06:36:25.808Z,17.70
2018-09-10T06:36:59.401Z,17.70
2018-09-10T06:37:32.895Z,17.70
2018-09-10T06:38:06.513Z,17.80
2018-09-10T06:38:39.993Z,17.80
2018-09-10T06:39:13.483Z,17.70
2018-09-10T06:39:47.005Z,17.70
2018-09-10T06:40:20.524Z,17.80
2018-09-10T06:40:54.052Z,17.90
2018-09-10T06:41:27.576Z,17.90
2018-09-10T06:42:01.119Z,17.90
2018-09-10T06:42:34.631Z,17.80
2018-09-10T06:43:08.126Z,17.90
2018-09-10T06:43:41.636Z,17.90
2018-09-10T06:44:15.144Z,17.90
2018-09-10T06:44:48.631Z,17.90
2018-09-10T06:45:22.160Z,17.90
2018-09-10T06:45:55.647Z,18.00
2018-09-10T06:46:29.137Z,17.90
2018-09-10T06:47:02.645Z,17.90
2018-09-10T06:47:36.266Z,17.90
2018-09-10T06:48:09.759Z,18.00
2018-09-10T06:48:43.268Z,17.90
2018-09-10T06:49:16.768Z,18.00
2018-09-10T06:49:50.274Z,17.90
2018-09-10T06:50:23.794Z,17.90
2018-09-10T06:50:57.363Z,18.00
2018-09-10T06:51:30.902Z,18.00
2018-09-10T06:52:04.476Z,18.00
2018-09-10T06:52:38.034Z,17.90
2018-09-10T06:53:11.568Z,18.00
2018-09-10T06:53:45.112Z,18.00
2018-09-10T06:54:18.638Z,18.00
2018-09-10T06:54:52.165Z,18.00
2018-09-10T06:55:25.646Z,18.00
2018-09-10T06:55:59.426Z,18.10
2018-09-10T06:56:32.928Z,18.00
2018-09-10T06:57:06.467Z,18.10
2018-09-10T06:57:39.969Z,18.10
2018-09-10T06:58:13.481Z,18.10
2018-09-10T06:58:47.016Z,18.10
2018-09-10T06:59:20.532Z,18.10
2018-09-10T06:59:54.028Z,18.10
2018-09-10T07:00:27.585Z,18.10
2018-09-10T07:01:01.292Z,18.10
2018-09-10T07:01:34.772Z,18.20
2018-09-10T07:02:08.284Z,18.10
2018-09-10T07:02:41.788Z,18.10
2018-09-10T07:03:15.300Z,18.10
2018-09-10T07:03:48.813Z,18.20
2018-09-10T07:04:22.320Z,18.10
2018-09-10T07:04:55.847Z,18.10
2018-09-10T07:05:29.392Z,18.20
2018-09-10T07:06:02.958Z,18.10
2018-09-10T07:06:36.440Z,18.20
2018-09-10T07:07:09.952Z,18.10
2018-09-10T07:07:43.526Z,18.20
2018-09-10T07:08:17.027Z,18.10
2018-09-10T07:08:50.508Z,18.20
2018-09-10T07:09:24.015Z,18.10
2018-09-10T07:09:57.552Z,18.20
2018-09-10T07:10:31.085Z,18.20
2018-09-10T07:11:04.738Z,18.20
2018-09-10T07:11:38.746Z,18.10
2018-09-10T07:12:12.276Z,18.20
2018-09-10T07:12:45.879Z,18.20
2018-09-10T07:13:19.384Z,18.30
2018-09-10T07:13:52.895Z,18.30
2018-09-10T07:14:26.436Z,18.30
2018-09-10T07:14:59.948Z,18.30
2018-09-10T07:15:33.509Z,18.20